sensor_id;sensor_type;location;lat;lon;timestamp;P1;durP1;ratioP1;P2;durP2;ratioP2
17259;SDS011;8746;49.230;9.220;2023-07-09T00:02:00;5.05;;;3.70;;
17259;SDS011;8746;49.230;9.220;2023-07-09T00:04:26;4.25;;;3.70;;
17259;SDS011;8746;49.230;9.220;2023-07-09T00:06:53;4.50;;;4.07;;
17259;SDS011;8746;49.230;9.220;2023-07-09T00:09:21;5.97;;;3.72;;
17259;SDS011;8746;49.230;9.220;2023-07-09T00:11:46;4.87;;;4.20;;
17259;SDS011;8746;49.230;9.220;2023-07-09T00:14:13;6.10;;;4.00;;
17259;SDS011;8746;49.230;9.220;2023-07-09T00:16:40;5.10;;;4.00;;
17259;SDS011;8746;49.230;9.220;2023-07-09T00:19:24;4.57;;;4.17;;
17259;SDS011;8746;49.230;9.220;2023-07-09T00:21:50;4.43;;;4.03;;
17259;SDS011;8746;49.230;9.220;2023-07-09T00:24:19;4.27;;;3.87;;
17259;SDS011;8746;49.230;9.220;2023-07-09T00:26:45;4.70;;;3.90;;
17259;SDS011;8746;49.230;9.220;2023-07-09T00:29:13;6.23;;;4.30;;
17259;SDS011;8746;49.230;9.220;2023-07-09T00:31:39;6.03;;;4.50;;
17259;SDS011;8746;49.230;9.220;2023-07-09T00:34:06;5.13;;;4.43;;
17259;SDS011;8746;49.230;9.220;2023-07-09T00:36:38;4.80;;;4.20;;
17259;SDS011;8746;49.230;9.220;2023-07-09T00:39:04;5.78;;;4.10;;
17259;SDS011;8746;49.230;9.220;2023-07-09T00:41:34;5.37;;;4.30;;
17259;SDS011;8746;49.230;9.220;2023-07-09T00:49:13;6.80;;;4.30;;
17259;SDS011;8746;49.230;9.220;2023-07-09T00:51:43;6.67;;;4.37;;
17259;SDS011;8746;49.230;9.220;2023-07-09T00:54:22;6.83;;;4.27;;
17259;SDS011;8746;49.230;9.220;2023-07-09T00:56:55;4.23;;;3.80;;
17259;SDS011;8746;49.230;9.220;2023-07-09T00:59:26;5.57;;;4.00;;
17259;SDS011;8746;49.230;9.220;2023-07-09T01:01:55;5.63;;;4.37;;
17259;SDS011;8746;49.230;9.220;2023-07-09T01:04:22;6.53;;;4.70;;
17259;SDS011;8746;49.230;9.220;2023-07-09T01:06:51;5.87;;;4.37;;
17259;SDS011;8746;49.230;9.220;2023-07-09T01:09:19;4.90;;;4.23;;
17259;SDS011;8746;49.230;9.220;2023-07-09T01:11:46;5.63;;;4.10;;
17259;SDS011;8746;49.230;9.220;2023-07-09T01:14:13;5.27;;;3.73;;
17259;SDS011;8746;49.230;9.220;2023-07-09T01:16:44;6.13;;;4.50;;
17259;SDS011;8746;49.230;9.220;2023-07-09T01:19:14;6.40;;;4.47;;
17259;SDS011;8746;49.230;9.220;2023-07-09T01:21:41;5.10;;;4.07;;
17259;SDS011;8746;49.230;9.220;2023-07-09T01:24:11;5.07;;;3.90;;
17259;SDS011;8746;49.230;9.220;2023-07-09T01:26:39;4.63;;;3.80;;
17259;SDS011;8746;49.230;9.220;2023-07-09T01:29:05;5.40;;;4.03;;
17259;SDS011;8746;49.230;9.220;2023-07-09T01:31:31;4.05;;;3.63;;
17259;SDS011;8746;49.230;9.220;2023-07-09T01:33:57;5.13;;;4.20;;
17259;SDS011;8746;49.230;9.220;2023-07-09T01:36:23;4.77;;;4.30;;
17259;SDS011;8746;49.230;9.220;2023-07-09T01:38:50;6.67;;;5.07;;
17259;SDS011;8746;49.230;9.220;2023-07-09T01:41:18;5.53;;;4.37;;
17259;SDS011;8746;49.230;9.220;2023-07-09T01:43:44;6.20;;;4.40;;
17259;SDS011;8746;49.230;9.220;2023-07-09T01:46:10;5.33;;;4.37;;
17259;SDS011;8746;49.230;9.220;2023-07-09T01:48:37;5.43;;;4.50;;
17259;SDS011;8746;49.230;9.220;2023-07-09T01:51:06;5.37;;;4.57;;
17259;SDS011;8746;49.230;9.220;2023-07-09T01:53:34;6.97;;;4.80;;
17259;SDS011;8746;49.230;9.220;2023-07-09T01:56:01;8.23;;;4.63;;
17259;SDS011;8746;49.230;9.220;2023-07-09T01:58:27;4.73;;;4.10;;
17259;SDS011;8746;49.230;9.220;2023-07-09T02:00:55;5.53;;;4.60;;
17259;SDS011;8746;49.230;9.220;2023-07-09T02:03:21;4.97;;;4.47;;
17259;SDS011;8746;49.230;9.220;2023-07-09T02:05:48;6.67;;;4.30;;
17259;SDS011;8746;49.230;9.220;2023-07-09T02:08:16;6.07;;;4.07;;
17259;SDS011;8746;49.230;9.220;2023-07-09T02:10:43;5.00;;;4.53;;
17259;SDS011;8746;49.230;9.220;2023-07-09T02:13:10;8.97;;;4.90;;
17259;SDS011;8746;49.230;9.220;2023-07-09T02:15:35;4.83;;;4.23;;
17259;SDS011;8746;49.230;9.220;2023-07-09T02:18:01;5.93;;;4.50;;
17259;SDS011;8746;49.230;9.220;2023-07-09T02:20:26;7.33;;;4.20;;
17259;SDS011;8746;49.230;9.220;2023-07-09T02:22:52;4.33;;;3.93;;
17259;SDS011;8746;49.230;9.220;2023-07-09T02:25:17;7.53;;;4.20;;
17259;SDS011;8746;49.230;9.220;2023-07-09T02:27:42;6.87;;;4.20;;
17259;SDS011;8746;49.230;9.220;2023-07-09T02:30:08;5.03;;;4.37;;
17259;SDS011;8746;49.230;9.220;2023-07-09T02:32:36;6.90;;;4.13;;
17259;SDS011;8746;49.230;9.220;2023-07-09T02:35:01;4.93;;;3.90;;
17259;SDS011;8746;49.230;9.220;2023-07-09T02:37:27;5.97;;;4.23;;
17259;SDS011;8746;49.230;9.220;2023-07-09T02:39:52;6.57;;;4.30;;
17259;SDS011;8746;49.230;9.220;2023-07-09T02:42:19;5.90;;;4.70;;
17259;SDS011;8746;49.230;9.220;2023-07-09T02:44:45;6.20;;;4.27;;
17259;SDS011;8746;49.230;9.220;2023-07-09T02:47:11;5.80;;;4.60;;
17259;SDS011;8746;49.230;9.220;2023-07-09T02:49:37;6.57;;;4.70;;
17259;SDS011;8746;49.230;9.220;2023-07-09T02:52:03;7.43;;;4.87;;
17259;SDS011;8746;49.230;9.220;2023-07-09T02:54:29;5.20;;;4.50;;
17259;SDS011;8746;49.230;9.220;2023-07-09T02:56:54;5.33;;;4.37;;
17259;SDS011;8746;49.230;9.220;2023-07-09T02:59:19;8.70;;;4.63;;
17259;SDS011;8746;49.230;9.220;2023-07-09T03:01:45;5.67;;;4.20;;
17259;SDS011;8746;49.230;9.220;2023-07-09T03:04:12;6.13;;;4.60;;
17259;SDS011;8746;49.230;9.220;2023-07-09T03:06:39;8.10;;;4.17;;
17259;SDS011;8746;49.230;9.220;2023-07-09T03:09:05;5.40;;;4.33;;
17259;SDS011;8746;49.230;9.220;2023-07-09T03:11:31;8.33;;;4.70;;
17259;SDS011;8746;49.230;9.220;2023-07-09T03:13:58;7.30;;;4.80;;
17259;SDS011;8746;49.230;9.220;2023-07-09T03:16:25;4.77;;;4.37;;
17259;SDS011;8746;49.230;9.220;2023-07-09T03:18:52;6.10;;;4.67;;
17259;SDS011;8746;49.230;9.220;2023-07-09T03:21:19;4.80;;;4.40;;
17259;SDS011;8746;49.230;9.220;2023-07-09T03:23:44;4.90;;;4.10;;
17259;SDS011;8746;49.230;9.220;2023-07-09T03:26:10;5.67;;;4.30;;
17259;SDS011;8746;49.230;9.220;2023-07-09T03:28:35;4.33;;;3.93;;
17259;SDS011;8746;49.230;9.220;2023-07-09T03:31:00;5.53;;;4.10;;
17259;SDS011;8746;49.230;9.220;2023-07-09T03:33:26;5.07;;;4.20;;
17259;SDS011;8746;49.230;9.220;2023-07-09T03:35:51;8.10;;;4.70;;
17259;SDS011;8746;49.230;9.220;2023-07-09T03:38:17;4.67;;;4.13;;
17259;SDS011;8746;49.230;9.220;2023-07-09T03:40:42;5.40;;;4.70;;
17259;SDS011;8746;49.230;9.220;2023-07-09T03:43:08;4.93;;;4.40;;
17259;SDS011;8746;49.230;9.220;2023-07-09T03:45:35;8.17;;;4.37;;
17259;SDS011;8746;49.230;9.220;2023-07-09T03:48:01;4.70;;;4.27;;
17259;SDS011;8746;49.230;9.220;2023-07-09T03:50:28;5.13;;;4.27;;
17259;SDS011;8746;49.230;9.220;2023-07-09T03:52:53;5.60;;;4.43;;
17259;SDS011;8746;49.230;9.220;2023-07-09T03:55:19;8.07;;;4.37;;
17259;SDS011;8746;49.230;9.220;2023-07-09T03:57:44;8.00;;;4.27;;
17259;SDS011;8746;49.230;9.220;2023-07-09T04:00:10;5.00;;;4.50;;
17259;SDS011;8746;49.230;9.220;2023-07-09T04:02:36;4.80;;;4.33;;
17259;SDS011;8746;49.230;9.220;2023-07-09T04:05:03;6.43;;;4.40;;
17259;SDS011;8746;49.230;9.220;2023-07-09T04:07:28;4.93;;;4.43;;
17259;SDS011;8746;49.230;9.220;2023-07-09T04:09:54;4.97;;;4.20;;
17259;SDS011;8746;49.230;9.220;2023-07-09T04:12:19;6.50;;;4.70;;
17259;SDS011;8746;49.230;9.220;2023-07-09T04:14:45;6.40;;;4.37;;
17259;SDS011;8746;49.230;9.220;2023-07-09T04:17:10;5.97;;;4.90;;
17259;SDS011;8746;49.230;9.220;2023-07-09T04:19:35;6.93;;;4.43;;
17259;SDS011;8746;49.230;9.220;2023-07-09T04:22:01;4.93;;;4.40;;
17259;SDS011;8746;49.230;9.220;2023-07-09T04:24:26;7.47;;;4.40;;
17259;SDS011;8746;49.230;9.220;2023-07-09T04:26:52;6.60;;;4.60;;
17259;SDS011;8746;49.230;9.220;2023-07-09T04:29:21;5.37;;;4.50;;
17259;SDS011;8746;49.230;9.220;2023-07-09T04:31:47;4.73;;;4.30;;
17259;SDS011;8746;49.230;9.220;2023-07-09T04:34:12;5.67;;;4.73;;
17259;SDS011;8746;49.230;9.220;2023-07-09T04:36:37;4.53;;;4.13;;
17259;SDS011;8746;49.230;9.220;2023-07-09T04:39:03;5.23;;;4.20;;
17259;SDS011;8746;49.230;9.220;2023-07-09T04:41:29;6.37;;;4.20;;
17259;SDS011;8746;49.230;9.220;2023-07-09T04:43:54;6.03;;;4.23;;
17259;SDS011;8746;49.230;9.220;2023-07-09T04:46:19;5.83;;;3.90;;
17259;SDS011;8746;49.230;9.220;2023-07-09T04:48:45;5.63;;;4.37;;
17259;SDS011;8746;49.230;9.220;2023-07-09T04:51:10;5.60;;;4.50;;
17259;SDS011;8746;49.230;9.220;2023-07-09T04:53:35;6.57;;;4.40;;
17259;SDS011;8746;49.230;9.220;2023-07-09T04:56:01;4.80;;;4.30;;
17259;SDS011;8746;49.230;9.220;2023-07-09T04:58:27;5.13;;;4.63;;
17259;SDS011;8746;49.230;9.220;2023-07-09T05:00:56;6.43;;;4.33;;
17259;SDS011;8746;49.230;9.220;2023-07-09T05:03:22;5.10;;;4.20;;
17259;SDS011;8746;49.230;9.220;2023-07-09T05:05:47;6.93;;;4.20;;
17259;SDS011;8746;49.230;9.220;2023-07-09T05:08:13;4.90;;;4.20;;
17259;SDS011;8746;49.230;9.220;2023-07-09T05:10:42;4.87;;;4.37;;
17259;SDS011;8746;49.230;9.220;2023-07-09T05:13:09;7.37;;;4.50;;
17259;SDS011;8746;49.230;9.220;2023-07-09T05:15:34;8.23;;;4.60;;
17259;SDS011;8746;49.230;9.220;2023-07-09T05:18:00;6.73;;;4.27;;
17259;SDS011;8746;49.230;9.220;2023-07-09T05:20:25;4.93;;;4.33;;
17259;SDS011;8746;49.230;9.220;2023-07-09T05:22:50;5.03;;;4.30;;
17259;SDS011;8746;49.230;9.220;2023-07-09T05:25:16;6.07;;;4.60;;
17259;SDS011;8746;49.230;9.220;2023-07-09T05:27:42;6.40;;;4.53;;
17259;SDS011;8746;49.230;9.220;2023-07-09T05:30:07;5.30;;;4.17;;
17259;SDS011;8746;49.230;9.220;2023-07-09T05:32:34;4.33;;;3.93;;
17259;SDS011;8746;49.230;9.220;2023-07-09T05:35:01;4.47;;;3.90;;
17259;SDS011;8746;49.230;9.220;2023-07-09T05:37:26;6.67;;;4.63;;
17259;SDS011;8746;49.230;9.220;2023-07-09T05:39:52;5.13;;;4.60;;
17259;SDS011;8746;49.230;9.220;2023-07-09T05:42:17;5.53;;;4.10;;
17259;SDS011;8746;49.230;9.220;2023-07-09T05:44:43;5.27;;;4.30;;
17259;SDS011;8746;49.230;9.220;2023-07-09T05:47:08;4.33;;;3.97;;
17259;SDS011;8746;49.230;9.220;2023-07-09T05:49:33;7.10;;;4.43;;
17259;SDS011;8746;49.230;9.220;2023-07-09T05:51:59;5.73;;;4.00;;
17259;SDS011;8746;49.230;9.220;2023-07-09T05:54:24;6.13;;;4.00;;
17259;SDS011;8746;49.230;9.220;2023-07-09T05:56:49;4.82;;;4.00;;
17259;SDS011;8746;49.230;9.220;2023-07-09T05:59:14;4.88;;;4.30;;
17259;SDS011;8746;49.230;9.220;2023-07-09T06:01:40;4.47;;;4.07;;
17259;SDS011;8746;49.230;9.220;2023-07-09T06:04:05;5.65;;;4.13;;
17259;SDS011;8746;49.230;9.220;2023-07-09T06:06:31;7.70;;;4.03;;
17259;SDS011;8746;49.230;9.220;2023-07-09T06:08:56;8.35;;;4.72;;
17259;SDS011;8746;49.230;9.220;2023-07-09T06:11:22;4.40;;;3.90;;
17259;SDS011;8746;49.230;9.220;2023-07-09T06:13:48;5.72;;;4.22;;
17259;SDS011;8746;49.230;9.220;2023-07-09T06:16:14;5.18;;;4.03;;
17259;SDS011;8746;49.230;9.220;2023-07-09T06:18:39;4.55;;;3.90;;
17259;SDS011;8746;49.230;9.220;2023-07-09T06:21:05;5.35;;;4.20;;
17259;SDS011;8746;49.230;9.220;2023-07-09T06:23:32;4.78;;;4.18;;
17259;SDS011;8746;49.230;9.220;2023-07-09T06:25:58;6.63;;;3.80;;
17259;SDS011;8746;49.230;9.220;2023-07-09T06:28:25;4.20;;;3.80;;
17259;SDS011;8746;49.230;9.220;2023-07-09T06:30:54;4.25;;;3.95;;
17259;SDS011;8746;49.230;9.220;2023-07-09T06:33:19;6.28;;;4.35;;
17259;SDS011;8746;49.230;9.220;2023-07-09T06:35:49;4.72;;;4.25;;
17259;SDS011;8746;49.230;9.220;2023-07-09T06:38:16;6.18;;;4.38;;
17259;SDS011;8746;49.230;9.220;2023-07-09T06:40:43;4.72;;;4.20;;
17259;SDS011;8746;49.230;9.220;2023-07-09T06:43:08;4.68;;;4.22;;
17259;SDS011;8746;49.230;9.220;2023-07-09T06:45:34;6.22;;;4.15;;
17259;SDS011;8746;49.230;9.220;2023-07-09T06:47:59;7.05;;;4.15;;
17259;SDS011;8746;49.230;9.220;2023-07-09T06:50:25;5.93;;;4.00;;
17259;SDS011;8746;49.230;9.220;2023-07-09T06:52:51;5.82;;;3.92;;
17259;SDS011;8746;49.230;9.220;2023-07-09T06:55:16;4.90;;;3.97;;
17259;SDS011;8746;49.230;9.220;2023-07-09T06:57:41;5.80;;;4.20;;
17259;SDS011;8746;49.230;9.220;2023-07-09T07:00:07;4.28;;;3.55;;
17259;SDS011;8746;49.230;9.220;2023-07-09T07:02:33;5.43;;;3.63;;
17259;SDS011;8746;49.230;9.220;2023-07-09T07:04:58;4.32;;;3.90;;
17259;SDS011;8746;49.230;9.220;2023-07-09T07:07:24;4.85;;;3.88;;
17259;SDS011;8746;49.230;9.220;2023-07-09T07:09:49;5.05;;;4.10;;
17259;SDS011;8746;49.230;9.220;2023-07-09T07:12:24;5.47;;;3.90;;
17259;SDS011;8746;49.230;9.220;2023-07-09T07:14:51;6.10;;;4.00;;
17259;SDS011;8746;49.230;9.220;2023-07-09T07:17:17;5.10;;;3.95;;
17259;SDS011;8746;49.230;9.220;2023-07-09T07:19:43;6.38;;;4.03;;
17259;SDS011;8746;49.230;9.220;2023-07-09T07:22:08;5.68;;;3.90;;
17259;SDS011;8746;49.230;9.220;2023-07-09T07:24:33;4.80;;;3.83;;
17259;SDS011;8746;49.230;9.220;2023-07-09T07:26:58;7.18;;;3.80;;
17259;SDS011;8746;49.230;9.220;2023-07-09T07:29:24;4.13;;;3.75;;
17259;SDS011;8746;49.230;9.220;2023-07-09T07:31:49;4.13;;;3.70;;
17259;SDS011;8746;49.230;9.220;2023-07-09T07:34:14;4.72;;;3.45;;
17259;SDS011;8746;49.230;9.220;2023-07-09T07:36:40;4.25;;;3.80;;
17259;SDS011;8746;49.230;9.220;2023-07-09T07:39:05;5.25;;;4.07;;
17259;SDS011;8746;49.230;9.220;2023-07-09T07:41:30;3.88;;;3.40;;
17259;SDS011;8746;49.230;9.220;2023-07-09T07:43:56;4.60;;;3.45;;
17259;SDS011;8746;49.230;9.220;2023-07-09T07:46:21;5.38;;;3.92;;
17259;SDS011;8746;49.230;9.220;2023-07-09T07:48:46;4.38;;;3.85;;
17259;SDS011;8746;49.230;9.220;2023-07-09T07:51:12;4.93;;;3.85;;
17259;SDS011;8746;49.230;9.220;2023-07-09T07:53:37;4.43;;;4.03;;
17259;SDS011;8746;49.230;9.220;2023-07-09T07:56:03;5.00;;;4.07;;
17259;SDS011;8746;49.230;9.220;2023-07-09T07:58:29;5.40;;;3.72;;
17259;SDS011;8746;49.230;9.220;2023-07-09T08:00:55;7.88;;;3.85;;
17259;SDS011;8746;49.230;9.220;2023-07-09T08:03:22;5.80;;;3.90;;
17259;SDS011;8746;49.230;9.220;2023-07-09T08:05:51;4.28;;;3.83;;
17259;SDS011;8746;49.230;9.220;2023-07-09T08:08:18;6.25;;;3.95;;
17259;SDS011;8746;49.230;9.220;2023-07-09T08:10:43;7.70;;;3.40;;
17259;SDS011;8746;49.230;9.220;2023-07-09T08:13:09;4.85;;;3.80;;
17259;SDS011;8746;49.230;9.220;2023-07-09T08:15:34;4.30;;;3.33;;
17259;SDS011;8746;49.230;9.220;2023-07-09T08:18:00;4.03;;;3.33;;
17259;SDS011;8746;49.230;9.220;2023-07-09T08:20:25;4.25;;;3.65;;
17259;SDS011;8746;49.230;9.220;2023-07-09T08:22:50;4.95;;;3.67;;
17259;SDS011;8746;49.230;9.220;2023-07-09T08:25:16;4.07;;;3.65;;
17259;SDS011;8746;49.230;9.220;2023-07-09T08:27:41;3.83;;;3.47;;
17259;SDS011;8746;49.230;9.220;2023-07-09T08:30:07;4.63;;;3.80;;
17259;SDS011;8746;49.230;9.220;2023-07-09T08:32:32;5.70;;;3.85;;
17259;SDS011;8746;49.230;9.220;2023-07-09T08:34:58;4.38;;;3.45;;
17259;SDS011;8746;49.230;9.220;2023-07-09T08:37:23;3.80;;;3.47;;
17259;SDS011;8746;49.230;9.220;2023-07-09T08:39:48;4.13;;;3.65;;
17259;SDS011;8746;49.230;9.220;2023-07-09T08:42:16;4.55;;;3.53;;
17259;SDS011;8746;49.230;9.220;2023-07-09T08:50:38;4.60;;;3.65;;
17259;SDS011;8746;49.230;9.220;2023-07-09T08:53:11;4.25;;;3.38;;
17259;SDS011;8746;49.230;9.220;2023-07-09T08:55:44;3.83;;;3.45;;
17259;SDS011;8746;49.230;9.220;2023-07-09T08:58:19;3.20;;;3.00;;
17259;SDS011;8746;49.230;9.220;2023-07-09T09:00:51;4.00;;;3.65;;
17259;SDS011;8746;49.230;9.220;2023-07-09T09:06:11;4.15;;;3.33;;
17259;SDS011;8746;49.230;9.220;2023-07-09T09:08:44;3.83;;;3.53;;
17259;SDS011;8746;49.230;9.220;2023-07-09T09:11:20;3.78;;;3.38;;
17259;SDS011;8746;49.230;9.220;2023-07-09T09:13:55;3.50;;;3.20;;
17259;SDS011;8746;49.230;9.220;2023-07-09T09:16:44;3.55;;;3.25;;
17259;SDS011;8746;49.230;9.220;2023-07-09T09:19:28;3.30;;;2.90;;
17259;SDS011;8746;49.230;9.220;2023-07-09T09:22:07;5.82;;;3.65;;
17259;SDS011;8746;49.230;9.220;2023-07-09T09:24:43;3.65;;;3.22;;
17259;SDS011;8746;49.230;9.220;2023-07-09T09:27:20;4.32;;;3.20;;
17259;SDS011;8746;49.230;9.220;2023-07-09T09:29:45;4.45;;;3.20;;
17259;SDS011;8746;49.230;9.220;2023-07-09T09:32:20;3.80;;;3.08;;
17259;SDS011;8746;49.230;9.220;2023-07-09T09:34:49;4.55;;;3.20;;
17259;SDS011;8746;49.230;9.220;2023-07-09T09:37:15;3.33;;;3.03;;
17259;SDS011;8746;49.230;9.220;2023-07-09T09:39:50;3.28;;;2.97;;
17259;SDS011;8746;49.230;9.220;2023-07-09T09:42:15;3.53;;;2.90;;
17259;SDS011;8746;49.230;9.220;2023-07-09T09:44:44;4.03;;;3.35;;
17259;SDS011;8746;49.230;9.220;2023-07-09T09:47:11;4.55;;;3.17;;
17259;SDS011;8746;49.230;9.220;2023-07-09T09:49:40;4.60;;;3.20;;
17259;SDS011;8746;49.230;9.220;2023-07-09T09:52:13;3.42;;;3.10;;
17259;SDS011;8746;49.230;9.220;2023-07-09T09:54:41;5.20;;;3.33;;
17259;SDS011;8746;49.230;9.220;2023-07-09T09:57:22;4.05;;;3.30;;
17259;SDS011;8746;49.230;9.220;2023-07-09T09:59:49;3.80;;;3.10;;
17259;SDS011;8746;49.230;9.220;2023-07-09T10:02:18;3.83;;;3.33;;
17259;SDS011;8746;49.230;9.220;2023-07-09T10:04:48;3.50;;;3.08;;
17259;SDS011;8746;49.230;9.220;2023-07-09T10:07:18;3.22;;;2.90;;
17259;SDS011;8746;49.230;9.220;2023-07-09T10:09:53;3.60;;;3.28;;
17259;SDS011;8746;49.230;9.220;2023-07-09T10:18:42;6.00;;;2.90;;
17259;SDS011;8746;49.230;9.220;2023-07-09T10:24:12;3.28;;;2.72;;
17259;SDS011;8746;49.230;9.220;2023-07-09T10:32:33;2.95;;;2.65;;
17259;SDS011;8746;49.230;9.220;2023-07-09T10:35:07;3.20;;;2.90;;
17259;SDS011;8746;49.230;9.220;2023-07-09T10:37:51;3.53;;;3.00;;
17259;SDS011;8746;49.230;9.220;2023-07-09T10:40:24;3.10;;;2.75;;
17259;SDS011;8746;49.230;9.220;2023-07-09T10:43:01;3.20;;;2.90;;
17259;SDS011;8746;49.230;9.220;2023-07-09T10:45:31;4.13;;;3.00;;
17259;SDS011;8746;49.230;9.220;2023-07-09T10:48:09;3.85;;;3.00;;
17259;SDS011;8746;49.230;9.220;2023-07-09T10:50:43;4.68;;;3.20;;
17259;SDS011;8746;49.230;9.220;2023-07-09T10:53:24;3.25;;;2.80;;
17259;SDS011;8746;49.230;9.220;2023-07-09T10:56:11;2.80;;;2.60;;
17259;SDS011;8746;49.230;9.220;2023-07-09T11:01:40;3.92;;;2.90;;
17259;SDS011;8746;49.230;9.220;2023-07-09T11:06:50;3.65;;;2.90;;
17259;SDS011;8746;49.230;9.220;2023-07-09T11:11:57;3.38;;;2.72;;
17259;SDS011;8746;49.230;9.220;2023-07-09T11:14:31;3.75;;;2.90;;
17259;SDS011;8746;49.230;9.220;2023-07-09T11:17:12;4.22;;;3.00;;
17259;SDS011;8746;49.230;9.220;2023-07-09T11:19:43;3.60;;;2.80;;
17259;SDS011;8746;49.230;9.220;2023-07-09T11:22:16;3.65;;;2.70;;
17259;SDS011;8746;49.230;9.220;2023-07-09T11:24:46;3.63;;;2.75;;
17259;SDS011;8746;49.230;9.220;2023-07-09T11:27:16;4.75;;;2.63;;
17259;SDS011;8746;49.230;9.220;2023-07-09T11:29:47;2.92;;;2.70;;
17259;SDS011;8746;49.230;9.220;2023-07-09T11:32:24;3.40;;;3.10;;
17259;SDS011;8746;49.230;9.220;2023-07-09T11:34:50;3.40;;;3.10;;
17259;SDS011;8746;49.230;9.220;2023-07-09T11:37:16;3.10;;;2.90;;
17259;SDS011;8746;49.230;9.220;2023-07-09T11:39:43;2.90;;;2.70;;
17259;SDS011;8746;49.230;9.220;2023-07-09T11:45:08;4.18;;;3.00;;
17259;SDS011;8746;49.230;9.220;2023-07-09T11:47:55;3.42;;;2.63;;
17259;SDS011;8746;49.230;9.220;2023-07-09T11:50:45;3.42;;;3.13;;
17259;SDS011;8746;49.230;9.220;2023-07-09T11:53:29;3.30;;;2.88;;
17259;SDS011;8746;49.230;9.220;2023-07-09T11:56:21;4.53;;;2.60;;
17259;SDS011;8746;49.230;9.220;2023-07-09T11:58:52;4.03;;;2.70;;
17259;SDS011;8746;49.230;9.220;2023-07-09T12:01:22;3.55;;;2.60;;
17259;SDS011;8746;49.230;9.220;2023-07-09T12:03:55;8.10;;;4.47;;
17259;SDS011;8746;49.230;9.220;2023-07-09T12:06:23;3.90;;;3.03;;
17259;SDS011;8746;49.230;9.220;2023-07-09T12:08:52;4.10;;;2.97;;
17259;SDS011;8746;49.230;9.220;2023-07-09T12:13:46;2.97;;;2.75;;
17259;SDS011;8746;49.230;9.220;2023-07-09T12:16:25;3.13;;;2.88;;
17259;SDS011;8746;49.230;9.220;2023-07-09T12:19:11;3.55;;;2.70;;
17259;SDS011;8746;49.230;9.220;2023-07-09T12:21:38;3.08;;;2.78;;
17259;SDS011;8746;49.230;9.220;2023-07-09T12:24:15;5.65;;;2.80;;
17259;SDS011;8746;49.230;9.220;2023-07-09T12:26:47;3.10;;;2.60;;
17259;SDS011;8746;49.230;9.220;2023-07-09T12:29:44;3.55;;;2.95;;
17259;SDS011;8746;49.230;9.220;2023-07-09T12:32:12;4.45;;;3.28;;
17259;SDS011;8746;49.230;9.220;2023-07-09T12:34:39;3.10;;;2.90;;
17259;SDS011;8746;49.230;9.220;2023-07-09T12:37:07;4.32;;;2.60;;
17259;SDS011;8746;49.230;9.220;2023-07-09T12:39:38;4.03;;;2.90;;
17259;SDS011;8746;49.230;9.220;2023-07-09T12:42:03;3.67;;;2.85;;
17259;SDS011;8746;49.230;9.220;2023-07-09T12:44:33;3.10;;;2.80;;
17259;SDS011;8746;49.230;9.220;2023-07-09T12:47:01;3.97;;;2.80;;
17259;SDS011;8746;49.230;9.220;2023-07-09T12:49:28;3.40;;;2.80;;
17259;SDS011;8746;49.230;9.220;2023-07-09T12:51:57;4.55;;;3.08;;
17259;SDS011;8746;49.230;9.220;2023-07-09T12:54:23;4.65;;;2.70;;
17259;SDS011;8746;49.230;9.220;2023-07-09T12:56:53;3.80;;;2.83;;
17259;SDS011;8746;49.230;9.220;2023-07-09T12:59:36;3.58;;;2.63;;
17259;SDS011;8746;49.230;9.220;2023-07-09T13:04:48;3.17;;;2.70;;
17259;SDS011;8746;49.230;9.220;2023-07-09T13:07:36;3.85;;;2.70;;
17259;SDS011;8746;49.230;9.220;2023-07-09T13:10:17;3.65;;;2.72;;
17259;SDS011;8746;49.230;9.220;2023-07-09T13:12:45;4.03;;;3.10;;
17259;SDS011;8746;49.230;9.220;2023-07-09T13:15:26;5.72;;;3.00;;
17259;SDS011;8746;49.230;9.220;2023-07-09T13:18:00;3.30;;;3.00;;
17259;SDS011;8746;49.230;9.220;2023-07-09T13:20:29;4.60;;;3.00;;
17259;SDS011;8746;49.230;9.220;2023-07-09T13:22:55;2.90;;;2.58;;
17259;SDS011;8746;49.230;9.220;2023-07-09T13:25:21;3.35;;;3.05;;
17259;SDS011;8746;49.230;9.220;2023-07-09T13:27:47;3.20;;;2.90;;
17259;SDS011;8746;49.230;9.220;2023-07-09T13:30:13;3.88;;;2.60;;
17259;SDS011;8746;49.230;9.220;2023-07-09T13:32:38;5.18;;;2.90;;
17259;SDS011;8746;49.230;9.220;2023-07-09T13:35:13;3.10;;;2.72;;
17259;SDS011;8746;49.230;9.220;2023-07-09T13:37:41;3.67;;;3.22;;
17259;SDS011;8746;49.230;9.220;2023-07-09T13:40:07;5.63;;;2.95;;
17259;SDS011;8746;49.230;9.220;2023-07-09T13:42:35;3.13;;;2.85;;
17259;SDS011;8746;49.230;9.220;2023-07-09T13:45:01;3.28;;;2.88;;
17259;SDS011;8746;49.230;9.220;2023-07-09T13:47:26;3.85;;;2.95;;
17259;SDS011;8746;49.230;9.220;2023-07-09T13:49:52;3.80;;;3.30;;
17259;SDS011;8746;49.230;9.220;2023-07-09T13:52:21;4.28;;;2.63;;
17259;SDS011;8746;49.230;9.220;2023-07-09T13:54:51;4.45;;;3.03;;
17259;SDS011;8746;49.230;9.220;2023-07-09T13:57:17;3.88;;;2.55;;
17259;SDS011;8746;49.230;9.220;2023-07-09T13:59:46;5.25;;;3.40;;
17259;SDS011;8746;49.230;9.220;2023-07-09T14:02:17;4.78;;;3.22;;
17259;SDS011;8746;49.230;9.220;2023-07-09T14:04:50;3.25;;;2.90;;
17259;SDS011;8746;49.230;9.220;2023-07-09T14:07:29;3.30;;;2.97;;
17259;SDS011;8746;49.230;9.220;2023-07-09T14:09:57;2.85;;;2.60;;
17259;SDS011;8746;49.230;9.220;2023-07-09T14:12:24;4.28;;;3.10;;
17259;SDS011;8746;49.230;9.220;2023-07-09T14:14:51;4.95;;;3.50;;
17259;SDS011;8746;49.230;9.220;2023-07-09T14:17:18;4.25;;;2.85;;
17259;SDS011;8746;49.230;9.220;2023-07-09T14:19:43;3.55;;;2.78;;
17259;SDS011;8746;49.230;9.220;2023-07-09T14:22:17;3.85;;;3.00;;
17259;SDS011;8746;49.230;9.220;2023-07-09T14:24:46;3.53;;;2.63;;
17259;SDS011;8746;49.230;9.220;2023-07-09T14:27:12;3.40;;;2.75;;
17259;SDS011;8746;49.230;9.220;2023-07-09T14:29:37;2.85;;;2.65;;
17259;SDS011;8746;49.230;9.220;2023-07-09T14:32:03;4.30;;;2.97;;
17259;SDS011;8746;49.230;9.220;2023-07-09T14:34:32;3.20;;;2.90;;
17259;SDS011;8746;49.230;9.220;2023-07-09T14:36:58;4.13;;;2.63;;
17259;SDS011;8746;49.230;9.220;2023-07-09T14:39:28;4.18;;;3.28;;
17259;SDS011;8746;49.230;9.220;2023-07-09T14:41:53;4.63;;;2.72;;
17259;SDS011;8746;49.230;9.220;2023-07-09T14:44:22;4.32;;;2.95;;
17259;SDS011;8746;49.230;9.220;2023-07-09T14:46:48;4.00;;;2.60;;
17259;SDS011;8746;49.230;9.220;2023-07-09T14:49:15;3.13;;;2.80;;
17259;SDS011;8746;49.230;9.220;2023-07-09T14:51:41;5.70;;;2.85;;
17259;SDS011;8746;49.230;9.220;2023-07-09T14:56:46;3.10;;;2.80;;
17259;SDS011;8746;49.230;9.220;2023-07-09T14:59:12;4.78;;;2.92;;
17259;SDS011;8746;49.230;9.220;2023-07-09T15:01:37;4.30;;;2.80;;
17259;SDS011;8746;49.230;9.220;2023-07-09T15:04:45;4.82;;;2.78;;
17259;SDS011;8746;49.230;9.220;2023-07-09T15:06:53;4.05;;;2.97;;
17259;SDS011;8746;49.230;9.220;2023-07-09T15:09:20;4.85;;;2.90;;
17259;SDS011;8746;49.230;9.220;2023-07-09T15:11:48;3.05;;;2.50;;
17259;SDS011;8746;49.230;9.220;2023-07-09T15:14:16;3.63;;;2.63;;
17259;SDS011;8746;49.230;9.220;2023-07-09T15:16:41;2.75;;;2.55;;
17259;SDS011;8746;49.230;9.220;2023-07-09T15:19:13;5.10;;;3.13;;
17259;SDS011;8746;49.230;9.220;2023-07-09T15:21:39;5.72;;;2.50;;
17259;SDS011;8746;49.230;9.220;2023-07-09T15:24:06;3.50;;;2.30;;
17259;SDS011;8746;49.230;9.220;2023-07-09T15:26:55;6.00;;;3.05;;
17259;SDS011;8746;49.230;9.220;2023-07-09T15:29:22;4.68;;;2.80;;
17259;SDS011;8746;49.230;9.220;2023-07-09T15:31:48;4.18;;;2.85;;
17259;SDS011;8746;49.230;9.220;2023-07-09T15:34:14;4.63;;;2.92;;
17259;SDS011;8746;49.230;9.220;2023-07-09T15:36:43;5.15;;;2.75;;
17259;SDS011;8746;49.230;9.220;2023-07-09T15:39:11;5.18;;;3.30;;
17259;SDS011;8746;49.230;9.220;2023-07-09T15:41:37;4.45;;;2.67;;
17259;SDS011;8746;49.230;9.220;2023-07-09T15:44:03;2.70;;;2.50;;
17259;SDS011;8746;49.230;9.220;2023-07-09T15:46:29;4.75;;;2.85;;
17259;SDS011;8746;49.230;9.220;2023-07-09T15:48:54;8.02;;;2.58;;
17259;SDS011;8746;49.230;9.220;2023-07-09T15:51:21;3.97;;;2.58;;
17259;SDS011;8746;49.230;9.220;2023-07-09T15:53:46;4.47;;;2.90;;
17259;SDS011;8746;49.230;9.220;2023-07-09T15:56:13;3.13;;;2.60;;